Jensen, Utah
Current Conditions -  °F | °C
As of 3:53 AM on Friday 24 Oct 2014 (Local Time) from KVEL Reporting Station
Clear Clear  
Wind Chill: 39°   Ceiling: Unl
Heat Index: 42°   Visibility: 10mi
Dew Point: 33°   Wind: 5mph
Humidity: 70%   Direction: 280°W
Pressure: 30.22"   Gusts: NA
Location:  40.37°N, 109.34°W
Report Text: KVEL 240953Z AUTO 28004KT 10SM CLR 06/01 A3022 RMK AO2 SLP204 T00560006
Loading
Personal Weather Stations






























Interactive Weather Map
Tropical Storm Tracking
New forecast layout! Learn more

10-Day Weather Forecast

Advertisements
Track Severe Weather on mobile